FW0643 Weather Reports


Display with metric or nautical units.
time (UTC)temp
F
wind
direction
speed
MPH
gust
MPH
rain 1hr
in
rain 24hr
in
rain mn
in
humidity
%
barometer
mb
20240722003919 76 292 0.0 0.0 0.00 0.01 0.01 92 1020.4
20240722002919 76 292 0.0 0.0 0.00 0.01 0.01 91 1020.2
20240722001920 76 292 0.0 0.0 0.00 0.01 0.01 90 1020.2
20240722000921 77 292 0.0 0.0 0.00 0.01 0.01 89 1020.3
20240721235820 77 292 0.0 0.0 0.00 0.01 0.01 88 1020.0
20240721234918 78 292 0.0 0.0 0.00 0.01 0.01 88 1020.0
20240721233919 78 292 0.0 0.0 0.00 0.01 0.01 88 1019.9
20240721232920 78 292 0.0 0.0 0.00 0.01 0.01 86 1019.7
20240721232820 78 292 0.0 0.0 0.00 0.01 0.01 87 1019.8
20240721230918 79 45 0.0 0.0 0.00 0.01 0.01 87 1019.5
20240721225919 79 45 0.0 0.0 0.00 0.01 0.01 87 1019.6
20240721224921 79 45 0.0 0.0 0.00 0.01 0.01 87 1019.7
20240721223919 79 45 0.0 0.0 0.00 0.01 0.01 86 1019.7
20240721222922 79 40 0.0 3.0 0.00 0.01 0.01 86 1019.9
20240721221920 79 225 0.0 0.0 0.00 0.01 0.01 87 1019.8
20240721220919 79 202 0.0 0.0 0.00 0.01 0.01 87 1019.7
20240721215920 78 360 0.0 0.0 0.00 0.01 0.01 90 1019.7
20240721215018 78 360 0.0 0.0 0.00 0.01 0.01 91 1019.8
20240721214020 78 9 0.0 0.0 0.00 0.01 0.01 92 1019.9
20240721213118 78 180 0.0 0.0 0.00 0.01 0.01 93 1019.9
20240721212120 78 180 0.0 0.0 0.00 0.01 0.01 92 1019.9
20240721212020 78 180 0.0 0.0 0.00 0.01 0.01 92 1019.8
20240721211019 78 180 0.0 0.0 0.00 0.01 0.01 91 1019.8
20240721210019 79 180 0.0 0.0 0.00 0.01 0.01 91 1019.7
20240721204021 81 157 0.0 0.0 0.00 0.01 0.01 84 1020.1
20240721203019 81 157 0.0 1.0 0.00 0.01 0.01 82 1020.1
20240721202118 82 157 0.0 1.0 0.00 0.01 0.01 79 1020.0
20240721201120 83 67 0.0 1.0 0.00 0.01 0.01 78 1020.2
20240721200219 83 67 0.0 1.0 0.00 0.01 0.01 79 1020.1
20240721195318 83 337 0.0 3.0 0.00 0.01 0.01 79 1020.1
20240721194322 82 67 0.0 0.0 0.00 0.01 0.01 79 1020.3
20240721193419 82 67 0.0 0.0 0.00 0.01 0.01 78 1020.3
20240721192420 83 67 0.0 0.0 0.00 0.01 0.01 77 1020.3
20240721192321 83 67 0.0 0.0 0.00 0.01 0.01 77 1020.3
20240721191319 84 67 0.0 0.0 0.00 0.01 0.01 74 1020.4
20240721190318 84 67 0.0 0.0 0.00 0.01 0.01 75 1020.5
20240721185320 84 67 0.0 0.0 0.00 0.01 0.01 75 1020.6
20240721184419 84 67 0.0 1.0 0.00 0.01 0.01 74 1020.6
20240721183420 84 67 0.0 0.0 0.00 0.01 0.01 73 1020.7
20240721182435 85 67 0.0 1.0 0.00 0.01 0.01 69 1020.7
20240721181521 84 67 0.0 1.0 0.00 0.01 0.01 72 1020.7
20240721175520 85 360 0.0 0.0 0.00 0.01 0.01 73 1020.9
20240721175418 84 360 0.0 0.0 0.00 0.01 0.01 73 1020.9
20240721174419 86 247 2.0 2.0 0.00 0.01 0.01 67 1020.9
20240721173419 87 225 0.0 1.0 0.00 0.01 0.01 66 1020.9
20240721172419 87 225 1.0 1.0 0.00 0.01 0.01 67 1021.1
20240721171420 87 225 0.0 0.0 0.00 0.01 0.01 67 1021.1
20240721171320 87 225 0.0 1.0 0.00 0.01 0.01 67 1021.1
20240721170319 87 157 0.0 1.0 0.00 0.01 0.01 66 1021.1
20240721165418 87 157 0.0 1.0 0.00 0.01 0.01 66 1021.1
20240721164421 86 42 0.0 2.0 0.00 0.01 0.01 67 1021.1
20240721162419 86 170 0.0 2.0 0.00 0.01 0.01 66 1021.2
20240721160517 85 247 0.0 1.0 0.00 0.01 0.01 73 1021.3
20240721155520 85 202 0.0 1.0 0.00 0.01 0.01 73 1021.3
20240721154518 85 180 0.0 0.0 0.00 0.02 0.01 73 1021.3
20240721153518 83 292 0.0 1.0 0.00 0.02 0.01 75 1021.1
20240721152520 82 273 0.0 3.0 0.00 0.02 0.01 78 1021.3
20240721151618 83 163 0.0 1.0 0.00 0.02 0.01 77 1021.2
20240721150621 82 180 1.0 1.0 0.00 0.02 0.01 78 1021.3
20240721150521 82 180 0.0 1.0 0.00 0.02 0.01 78 1021.3
20240721144622 82 270 0.0 1.0 0.00 0.02 0.01 79 1021.3
20240721141620 78 337 0.0 0.0 0.00 0.02 0.01 87 1021.4
20240721140718 77 247 0.0 0.0 0.00 0.02 0.01 90 1021.3
20240721135719 76 247 0.0 0.0 0.00 0.02 0.01 91 1021.3
20240721134719 76 247 0.0 1.0 0.00 0.02 0.01 91 1021.3
20240721133718 76 247 0.0 1.0 0.00 0.02 0.01 92 1021.2
20240721131719 76 247 0.0 0.0 0.00 0.02 0.01 93 1021.2
20240721130718 75 247 0.0 0.0 0.00 0.02 0.01 94 1021.2
20240721124719 74 247 0.0 1.0 0.00 0.02 0.01 96 1021.3
20240721123618 74 247 1.0 1.0 0.00 0.02 0.01 97 1021.2
20240721122717 74 247 1.0 2.0 0.00 0.02 0.01 98 1021.2
20240721121720 73 247 0.0 0.0 0.00 0.02 0.01 99 1021.1
20240721120819 73 247 0.0 0.0 0.00 0.02 0.01 99 1021.3
20240721120719 73 247 1.0 1.0 0.00 0.02 0.01 99 1021.3
20240721115720 73 247 0.0 1.0 0.00 0.02 0.01 100 1021.2
20240721114818 73 247 0.0 1.0 0.00 0.02 0.01 100 1021.2
20240721113819 72 247 0.0 1.0 0.00 0.02 0.01 100 1021.1
20240721112819 72 247 0.0 1.0 0.00 0.02 0.01 100 1021.1
20240721110819 71 247 0.0 0.0 0.01 0.02 0.01 100 1020.8
20240721105917 71 247 0.0 0.0 0.01 0.02 0.01 100 1020.7
20240721104919 71 247 0.0 0.0 0.01 0.02 0.01 100 1020.7
20240721104817 71 247 0.0 0.0 0.01 0.02 0.01 100 1020.7
20240721103821 71 247 0.0 0.0 0.01 0.02 0.01 100 1020.6
20240721101920 71 247 0.0 0.0 0.01 0.02 0.01 100 1020.6
20240721100918 71 247 0.0 0.0 0.00 0.01 0.00 100 1020.5
20240721095934 71 247 0.0 0.0 0.00 0.01 0.00 100 1020.2
20240721094918 71 247 0.0 0.0 0.00 0.01 0.00 100 1020.1
20240721093919 71 247 0.0 0.0 0.00 0.01 0.00 100 1020.0
20240721092919 71 247 0.0 0.0 0.00 0.01 0.00 100 1019.9
20240721092821 71 247 0.0 0.0 0.00 0.01 0.00 100 1019.9
20240721091817 71 247 0.0 0.0 0.00 0.01 0.00 100 1019.9
20240721090818 71 247 0.0 0.0 0.00 0.01 0.00 100 1019.8
20240721085817 71 247 0.0 0.0 0.00 0.01 0.00 100 1019.7
20240721084819 71 247 0.0 0.0 0.00 0.01 0.00 100 1019.6
20240721083819 72 247 0.0 0.0 0.00 0.01 0.00 100 1019.5
20240721082820 72 247 0.0 0.0 0.00 0.01 0.00 100 1019.5
20240721081819 72 247 0.0 1.0 0.00 0.01 0.00 99 1019.6
20240721075818 72 247 0.0 1.0 0.00 0.01 0.00 99 1019.6
20240721074819 72 247 0.0 1.0 0.00 0.01 0.00 100 1019.5
20240721073819 73 247 0.0 1.0 0.00 0.01 0.00 99 1019.6
20240721072820 73 247 0.0 2.0 0.00 0.01 0.00 100 1019.5
20240721071917 73 247 0.0 1.0 0.00 0.01 0.00 99 1019.6
20240721070819 73 247 0.0 1.0 0.00 0.01 0.00 99 1019.7
20240721065917 73 247 1.0 2.0 0.00 0.01 0.00 100 1019.8
20240721064920 73 247 1.0 1.0 0.00 0.01 0.00 100 1019.8
20240721063918 73 247 1.0 2.0 0.00 0.01 0.00 99 1019.8
20240721062918 73 247 1.0 2.0 0.00 0.01 0.00 100 1019.9
20240721062821 73 247 1.0 2.0 0.00 0.01 0.00 100 1019.9
20240721061818 73 247 1.0 2.0 0.00 0.01 0.00 100 1019.7
20240721055817 73 247 1.0 1.0 0.00 0.01 0.00 100 1019.7
20240721054821 73 247 1.0 1.0 0.00 0.01 0.00 100 1019.9
20240721053917 73 247 0.0 1.0 0.00 0.01 0.00 100 1019.9
20240721052921 73 247 1.0 1.0 0.00 0.01 0.00 100 1019.7
20240721052018 73 247 0.0 1.0 0.00 0.01 0.00 100 1019.7
20240721051018 73 247 0.0 0.0 0.00 0.01 0.00 100 1019.7
20240721050117 73 247 1.0 1.0 0.00 0.01 0.00 100 1019.5
20240721043119 73 247 0.0 1.0 0.00 0.01 0.00 99 1019.7
20240721041217 73 247 0.0 0.0 0.00 0.01 0.00 98 1019.6
20240721040218 73 247 0.0 0.0 0.00 0.01 0.00 99 1019.6
20240721034223 73 247 1.0 1.0 0.00 0.01 0.01 99 1019.3
20240721033322 74 247 0.0 0.0 0.00 0.01 0.01 99 1019.5
20240721032422 74 247 1.0 1.0 0.00 0.02 0.01 99 1019.6
20240721031424 74 247 0.0 0.0 0.00 0.02 0.01 98 1019.7
20240721030423 74 247 0.0 0.0 0.00 0.02 0.01 98 1019.9
20240721025424 74 247 0.0 0.0 0.00 0.02 0.01 98 1019.8
20240721024523 74 247 0.0 0.0 0.00 0.02 0.01 97 1019.9
20240721023525 74 247 0.0 0.0 0.00 0.02 0.01 97 1020.0
20240721022624 74 247 0.0 0.0 0.00 0.02 0.01 98 1020.2
20240721021623 74 247 0.0 1.0 0.00 0.02 0.01 98 1020.2
20240721020623 74 247 0.0 1.0 0.00 0.02 0.01 98 1020.2
20240721015622 74 247 0.0 1.0 0.00 0.02 0.01 98 1020.4
20240721014622 74 247 0.0 1.0 0.00 0.02 0.01 98 1020.4
20240721013622 74 247 0.0 0.0 0.00 0.02 0.01 97 1020.4
20240721012625 74 247 0.0 0.0 0.00 0.02 0.01 97 1020.6
20240721011623 74 247 0.0 1.0 0.00 0.02 0.01 97 1020.2
20240721005723 74 247 0.0 0.0 0.00 0.02 0.01 96 1019.6